createdAt,value
2023-03-19T00:02:15.692Z,100392.78
2023-03-19T00:04:39.025Z,100385.98
2023-03-19T00:07:12.499Z,100385.98
2023-03-19T00:09:48.530Z,100381.73
2023-03-19T00:12:23.429Z,100375.52
2023-03-19T00:14:57.067Z,100371.94
2023-03-19T00:17:30.282Z,100369.38
2023-03-19T00:20:03.679Z,100371.94
2023-03-19T00:22:36.923Z,100371.94
2023-03-19T00:25:11.242Z,100366.16
2023-03-19T00:27:44.981Z,100360.93
2023-03-19T00:30:19.969Z,100357.35
2023-03-19T00:32:54.992Z,100355.81
2023-03-19T00:35:28.695Z,100353.25
2023-03-19T00:38:01.860Z,100347.88
2023-03-19T00:40:37.336Z,100352.02
2023-03-19T00:43:10.632Z,100344.89
2023-03-19T00:45:44.034Z,100353.34
2023-03-19T00:48:17.184Z,100358.23
2023-03-19T00:50:50.529Z,100347.86
2023-03-19T00:53:25.453Z,100347.64
2023-03-19T00:55:58.640Z,100350.86
2023-03-19T00:58:32.111Z,100354.30
2023-03-19T01:01:07.653Z,100346.30
2023-03-19T01:03:41.686Z,100354.73
2023-03-19T01:06:15.988Z,100345.93
2023-03-19T01:08:49.245Z,100342.50
2023-03-19T01:11:23.536Z,100342.24
2023-03-19T01:14:01.817Z,100333.91
2023-03-19T01:16:35.869Z,100336.47
2023-03-19T01:19:09.308Z,100330.47
2023-03-19T01:21:44.143Z,100328.68
2023-03-19T01:24:18.891Z,100321.55
2023-03-19T01:26:53.628Z,100324.66
2023-03-19T01:29:28.576Z,100323.64
2023-03-19T01:32:03.540Z,100326.20
2023-03-19T01:34:56.399Z,100326.75
2023-03-19T01:37:29.646Z,100320.39
2023-03-19T01:40:03.964Z,100317.61
2023-03-19T01:42:38.610Z,100322.62
2023-03-19T01:45:34.847Z,100309.58
2023-03-19T01:48:31.540Z,100316.00
2023-03-19T01:51:09.065Z,100315.02
2023-03-19T01:53:59.154Z,100306.98
2023-03-19T01:56:39.010Z,100302.52
2023-03-19T01:59:21.444Z,100303.17
2023-03-19T02:02:15.491Z,100299.48
2023-03-19T02:04:52.304Z,100309.38
2023-03-19T02:07:26.727Z,100296.48
2023-03-19T02:10:01.220Z,100298.02
2023-03-19T02:12:35.028Z,100298.13
2023-03-19T02:15:10.476Z,100292.02
2023-03-19T02:17:46.007Z,100290.23
2023-03-19T02:20:27.276Z,100292.90
2023-03-19T02:23:06.743Z,100285.12
2023-03-19T02:25:45.486Z,100280.77
2023-03-19T02:28:24.544Z,100286.66
2023-03-19T02:30:58.687Z,100282.20
2023-03-19T02:33:32.093Z,100283.76
2023-03-19T02:36:09.105Z,100280.84
2023-03-19T02:38:44.771Z,100272.94
2023-03-19T02:41:21.223Z,100289.92
2023-03-19T02:43:55.505Z,100286.27
2023-03-19T02:46:29.188Z,100277.20
2023-03-19T02:49:04.144Z,100279.75
2023-03-19T02:51:37.727Z,100283.22
2023-03-19T02:54:11.341Z,100270.45
2023-03-19T02:56:52.599Z,100273.00
2023-03-19T02:59:25.826Z,100275.30
2023-03-19T03:02:01.698Z,100275.30
2023-03-19T03:04:37.869Z,100270.84
2023-03-19T03:07:12.158Z,100272.17
2023-03-19T03:09:49.070Z,100262.07
2023-03-19T03:12:23.896Z,100264.25
2023-03-19T03:14:57.184Z,100263.26
2023-03-19T03:17:30.595Z,100262.88
2023-03-19T03:20:03.683Z,100264.41
2023-03-19T03:22:38.459Z,100251.30
2023-03-19T03:25:14.342Z,100247.72
2023-03-19T03:27:51.063Z,100255.80
2023-03-19T03:30:25.399Z,100251.12
2023-03-19T03:32:58.732Z,100255.31
2023-03-19T03:35:34.287Z,100255.84
2023-03-19T03:38:07.651Z,100251.27
2023-03-19T03:40:42.004Z,100253.71
2023-03-19T03:43:18.562Z,100250.25
2023-03-19T03:45:51.829Z,100251.80
2023-03-19T03:48:26.151Z,100253.33
2023-03-19T03:50:59.312Z,100253.22
2023-03-19T03:53:33.428Z,100251.31
2023-03-19T03:56:09.662Z,100251.05
2023-03-19T03:58:43.170Z,100251.95
2023-03-19T04:01:21.550Z,100249.14
2023-03-19T04:03:55.966Z,100251.69
2023-03-19T04:06:30.295Z,100250.58
2023-03-19T04:09:07.752Z,100244.33
2023-03-19T04:11:42.639Z,100248.67
2023-03-19T04:14:16.068Z,100243.80
2023-03-19T04:16:53.999Z,100247.27
2023-03-19T04:19:27.382Z,100242.16
2023-03-19T04:22:00.589Z,100244.19
2023-03-19T04:24:34.425Z,100246.20
2023-03-19T04:27:11.084Z,100241.33
2023-03-19T04:29:47.198Z,100238.13
2023-03-19T04:32:22.167Z,100231.50
2023-03-19T04:34:55.341Z,100230.73
2023-03-19T04:37:32.092Z,100237.86
2023-03-19T04:40:07.857Z,100225.20
2023-03-19T04:42:44.756Z,100218.58
2023-03-19T04:45:22.704Z,100227.34
2023-03-19T04:47:57.119Z,100227.72
2023-03-19T04:50:31.713Z,100224.63
2023-03-19T04:53:06.848Z,100220.66
2023-03-19T04:55:41.203Z,100221.79
2023-03-19T04:58:19.690Z,100213.48
2023-03-19T05:00:54.562Z,100212.03
2023-03-19T05:03:31.636Z,100214.07
2023-03-19T05:06:05.862Z,100203.05
2023-03-19T05:08:39.008Z,100204.13
2023-03-19T05:11:12.315Z,100215.48
2023-03-19T05:13:51.425Z,100210.84
2023-03-19T05:16:24.540Z,100207.74
2023-03-19T05:18:59.661Z,100203.88
2023-03-19T05:21:34.244Z,100200.22
2023-03-19T05:24:07.945Z,100203.91
2023-03-19T05:26:42.013Z,100198.12
2023-03-19T05:29:23.419Z,100193.59
2023-03-19T05:32:03.395Z,100191.61
2023-03-19T05:34:36.861Z,100195.40
2023-03-19T05:37:10.236Z,100189.07
2023-03-19T05:39:43.579Z,100157.81
2023-03-19T05:42:20.300Z,100185.19
2023-03-19T05:44:53.743Z,100187.75
2023-03-19T05:47:28.480Z,100180.63
2023-03-19T05:50:02.390Z,100179.40
2023-03-19T05:52:35.898Z,100187.63
2023-03-19T05:55:11.232Z,100184.75
2023-03-19T05:57:50.445Z,100181.26
2023-03-19T06:00:25.951Z,100180.92
2023-03-19T06:02:59.470Z,100176.01
2023-03-19T06:05:37.524Z,100185.48
2023-03-19T06:08:23.509Z,100179.69
2023-03-19T06:11:01.117Z,100172.34
2023-03-19T06:13:34.661Z,100168.63
2023-03-19T06:16:12.510Z,100159.50
2023-03-19T06:18:53.922Z,100162.98
2023-03-19T06:21:30.503Z,100154.16
2023-03-19T06:24:05.956Z,100150.14
2023-03-19T06:26:41.119Z,100140.62
2023-03-19T06:29:20.041Z,100105.48
2023-03-19T06:31:56.842Z,100133.16
2023-03-19T06:34:31.836Z,100122.00
2023-03-19T06:37:05.667Z,100120.55
2023-03-19T06:39:42.652Z,100115.76
2023-03-19T06:42:19.947Z,100106.86
2023-03-19T06:44:53.890Z,100100.96
2023-03-19T06:47:27.473Z,100099.74
2023-03-19T06:50:01.357Z,100092.30
2023-03-19T06:52:33.725Z,100102.23
2023-03-19T06:55:08.196Z,100092.09
2023-03-19T06:57:41.708Z,100103.61
2023-03-19T07:00:20.864Z,100097.51
2023-03-19T07:02:54.279Z,100096.00
2023-03-19T07:05:35.624Z,100088.49
2023-03-19T07:08:12.173Z,100086.78
2023-03-19T07:11:00.977Z,100081.23
2023-03-19T07:13:37.840Z,100080.54
2023-03-19T07:16:11.756Z,100079.69
2023-03-19T07:18:48.121Z,100076.53
2023-03-19T07:21:23.208Z,100075.73
2023-03-19T07:26:57.894Z,100077.31
2023-03-19T07:29:31.286Z,100076.59
2023-03-19T07:32:04.933Z,100074.94
2023-03-19T07:34:38.169Z,100065.62
2023-03-19T07:37:11.875Z,100071.03
2023-03-19T07:39:45.122Z,100062.70
2023-03-19T07:42:22.148Z,100062.30
2023-03-19T07:44:55.366Z,100064.29
2023-03-19T07:47:29.709Z,100057.85
2023-03-19T07:50:04.131Z,100061.81
2023-03-19T07:52:37.426Z,100063.59
2023-03-19T07:55:12.974Z,100054.94
2023-03-19T07:57:49.083Z,100058.91
2023-03-19T08:00:23.586Z,100054.20
2023-03-19T08:02:59.393Z,100049.81
2023-03-19T08:05:32.536Z,100044.64
2023-03-19T08:08:06.621Z,100046.00
2023-03-19T08:10:40.531Z,100038.61
2023-03-19T08:13:15.181Z,100032.68
2023-03-19T08:15:53.573Z,100033.25
2023-03-19T08:18:27.561Z,100026.10
2023-03-19T08:21:00.842Z,100023.46
2023-03-19T08:23:36.472Z,100026.39
2023-03-19T08:26:09.641Z,100018.91
2023-03-19T08:28:47.503Z,100013.77
2023-03-19T08:31:20.704Z,100000.16
2023-03-19T08:33:54.093Z,100005.10
2023-03-19T08:36:30.546Z,99998.26
2023-03-19T08:39:04.465Z,99993.14
2023-03-19T08:41:39.390Z,99984.12
2023-03-19T08:44:14.482Z,99978.80
2023-03-19T08:46:51.428Z,99976.73
2023-03-19T08:49:24.588Z,99968.91
2023-03-19T08:51:57.898Z,99963.18
2023-03-19T08:54:33.981Z,99964.92
2023-03-19T08:57:10.108Z,99969.98
2023-03-19T08:59:43.206Z,99960.70
2023-03-19T09:02:20.003Z,99954.47
2023-03-19T09:04:53.479Z,99956.79
2023-03-19T09:07:26.775Z,99960.72
2023-03-19T09:10:00.029Z,99952.30
2023-03-19T09:12:34.390Z,99946.88
2023-03-19T09:15:10.209Z,99955.08
2023-03-19T09:17:48.191Z,99949.31
2023-03-19T09:20:21.893Z,99944.27
2023-03-19T09:22:55.138Z,99944.22
2023-03-19T09:25:28.326Z,99946.94
2023-03-19T09:28:01.679Z,99952.70
2023-03-19T09:30:35.026Z,99941.16
2023-03-19T09:33:09.133Z,99939.17
2023-03-19T09:35:42.988Z,99943.83
2023-03-19T09:38:19.334Z,99941.47
2023-03-19T09:40:56.954Z,99942.47
2023-03-19T09:43:42.309Z,99931.70
2023-03-19T09:46:22.874Z,99934.88
2023-03-19T09:49:00.107Z,99932.27
2023-03-19T09:51:36.783Z,99930.81
2023-03-19T09:54:20.243Z,99926.58
2023-03-19T09:56:54.581Z,99922.34
2023-03-19T09:59:30.876Z,99932.92
2023-03-19T10:02:28.196Z,99930.84
2023-03-19T10:05:10.144Z,99918.56
2023-03-19T10:08:11.832Z,99910.71
2023-03-19T10:10:56.216Z,99917.50
2023-03-19T10:13:48.722Z,99899.17
2023-03-19T10:16:25.633Z,99894.55
2023-03-19T10:19:02.073Z,99904.05
2023-03-19T10:21:39.903Z,99895.95
2023-03-19T10:24:18.453Z,99898.86
2023-03-19T10:27:18.728Z,99893.81
2023-03-19T10:30:00.762Z,99881.19
2023-03-19T10:32:40.338Z,99877.66
2023-03-19T10:35:22.574Z,99875.55
2023-03-19T10:37:55.940Z,99878.98
2023-03-19T10:40:32.361Z,99880.61
2023-03-19T10:43:12.737Z,99870.68
2023-03-19T10:45:50.503Z,99862.34
2023-03-19T10:48:28.324Z,99856.13
2023-03-19T10:51:04.606Z,99857.55
2023-03-19T10:53:39.090Z,99862.70
2023-03-19T10:56:23.352Z,99867.36
2023-03-19T10:59:02.645Z,99859.67
2023-03-19T11:01:39.529Z,99864.93
2023-03-19T11:04:20.441Z,99849.66
2023-03-19T11:06:55.515Z,99847.42
2023-03-19T11:09:34.628Z,99850.36
2023-03-19T11:12:20.601Z,99849.37
2023-03-19T11:14:55.161Z,99838.79
2023-03-19T11:17:31.807Z,99840.59
2023-03-19T11:20:19.872Z,99833.86
2023-03-19T11:22:56.478Z,99832.47
2023-03-19T11:25:32.490Z,99825.37
2023-03-19T11:28:09.930Z,99823.34
2023-03-19T11:30:47.482Z,99817.03
2023-03-19T11:33:55.289Z,99817.27
2023-03-19T11:36:35.106Z,99815.86
2023-03-19T11:39:21.414Z,99824.08
2023-03-19T11:42:07.908Z,99827.00
2023-03-19T11:44:50.584Z,99825.55
2023-03-19T11:47:28.319Z,99814.80
2023-03-19T11:50:25.680Z,99810.76
2023-03-19T11:53:16.992Z,99803.64
2023-03-19T11:55:54.627Z,99802.73
2023-03-19T11:58:49.196Z,99801.38
2023-03-19T12:01:31.567Z,99805.88
2023-03-19T12:04:29.985Z,99788.08
2023-03-19T12:09:44.709Z,99790.74
2023-03-19T12:12:26.830Z,99782.66
2023-03-19T12:15:17.997Z,99777.95
2023-03-19T12:18:00.050Z,99768.42
2023-03-19T12:20:43.042Z,99763.66
2023-03-19T12:23:22.542Z,99758.86
2023-03-19T12:26:06.259Z,99760.69
2023-03-19T12:28:42.938Z,99735.01
2023-03-19T12:31:32.337Z,99745.73
2023-03-19T12:34:15.128Z,99750.81
2023-03-19T12:36:52.111Z,99745.55
2023-03-19T12:39:29.245Z,99731.11
2023-03-19T12:42:04.353Z,99730.67
2023-03-19T12:44:40.352Z,99731.39
2023-03-19T12:47:16.901Z,99722.31
2023-03-19T12:49:53.091Z,99723.16
2023-03-19T12:52:29.211Z,99707.23
2023-03-19T12:55:06.062Z,99704.45
2023-03-19T12:57:54.561Z,99706.03
2023-03-19T13:00:32.558Z,99721.08
2023-03-19T13:03:09.533Z,99701.44
2023-03-19T13:05:45.921Z,99704.37
2023-03-19T13:08:23.725Z,99710.02
2023-03-19T13:10:59.686Z,99713.05
2023-03-19T13:13:40.019Z,99705.55
2023-03-19T13:16:21.141Z,99698.14
2023-03-19T13:18:58.269Z,99701.70
2023-03-19T13:21:34.327Z,99688.74
2023-03-19T13:24:21.968Z,99694.36
2023-03-19T13:26:53.110Z,99705.97
2023-03-19T13:29:27.989Z,99688.73
2023-03-19T13:32:06.815Z,99690.03
2023-03-19T13:34:41.677Z,99689.82
2023-03-19T13:37:21.350Z,99682.16
2023-03-19T13:39:54.618Z,99675.00
2023-03-19T13:42:43.281Z,99678.13
2023-03-19T13:45:44.097Z,99677.80
2023-03-19T13:48:43.405Z,99667.67
2023-03-19T13:54:50.873Z,99658.78
2023-03-19T14:01:01.455Z,99663.64
2023-03-19T14:06:46.424Z,99661.03
2023-03-19T14:12:42.112Z,99647.99
2023-03-19T14:15:23.060Z,99655.45
2023-03-19T14:18:07.171Z,99656.30
2023-03-19T14:20:51.935Z,99650.23
2023-03-19T14:23:39.438Z,99645.29
2023-03-19T14:26:13.257Z,99643.77
2023-03-19T14:28:58.374Z,99648.44
2023-03-19T14:31:46.530Z,99646.19
2023-03-19T14:34:32.806Z,99648.48
2023-03-19T14:37:10.202Z,99639.33
2023-03-19T14:39:53.096Z,99633.45
2023-03-19T14:42:30.828Z,99644.95
2023-03-19T14:45:43.130Z,99645.05
2023-03-19T14:48:29.528Z,99638.93
2023-03-19T14:51:23.187Z,99643.26
2023-03-19T14:54:06.014Z,99646.66
2023-03-19T14:56:42.044Z,99644.56
2023-03-19T14:59:19.561Z,99651.13
2023-03-19T15:01:59.730Z,99639.80
2023-03-19T15:04:42.199Z,99648.43
2023-03-19T15:07:20.693Z,99639.22
2023-03-19T15:10:03.686Z,99644.06
2023-03-19T15:12:58.288Z,99644.76
2023-03-19T15:16:02.701Z,99640.22
2023-03-19T15:18:39.193Z,99635.34
2023-03-19T15:21:20.804Z,99643.17
2023-03-19T15:23:58.890Z,99635.61
2023-03-19T15:26:36.381Z,99645.39
2023-03-19T15:29:12.532Z,99638.59
2023-03-19T15:31:52.800Z,99640.67
2023-03-19T15:34:26.755Z,99646.84
2023-03-19T15:37:06.162Z,99647.17
2023-03-19T15:39:43.900Z,99654.34
2023-03-19T15:42:20.532Z,99653.18
2023-03-19T15:44:59.589Z,99656.53
2023-03-19T15:47:37.217Z,99648.80
2023-03-19T15:50:19.079Z,99650.94
2023-03-19T15:52:55.402Z,99654.18
2023-03-19T15:55:29.487Z,99652.94
2023-03-19T15:58:07.042Z,99653.23
2023-03-19T16:00:49.350Z,99652.83
2023-03-19T16:03:26.695Z,99649.30
2023-03-19T16:06:06.012Z,99640.22
2023-03-19T16:08:40.743Z,99647.34
2023-03-19T16:11:31.375Z,99640.02
2023-03-19T16:14:09.397Z,99638.48
2023-03-19T16:16:45.615Z,99640.35
2023-03-19T16:19:37.738Z,99635.99
2023-03-19T16:22:17.369Z,99635.22
2023-03-19T16:24:57.518Z,99631.91
2023-03-19T16:27:38.931Z,99631.09
2023-03-19T16:30:23.796Z,99626.14
2023-03-19T16:33:02.725Z,99619.69
2023-03-19T16:35:39.346Z,99622.98
2023-03-19T16:38:23.081Z,99617.81
2023-03-19T16:41:21.310Z,99620.53
2023-03-19T16:44:05.874Z,99623.22
2023-03-19T16:46:42.825Z,99622.84
2023-03-19T16:49:16.262Z,99623.75
2023-03-19T16:51:52.651Z,99622.75
2023-03-19T16:54:26.455Z,99618.86
2023-03-19T16:57:07.168Z,99619.28
2023-03-19T16:59:46.542Z,99625.21
2023-03-19T17:05:38.174Z,99611.53
2023-03-19T17:08:21.623Z,99609.40
2023-03-19T17:11:03.571Z,99620.13
2023-03-19T17:13:48.813Z,99614.70
2023-03-19T17:16:22.367Z,99615.45
2023-03-19T17:19:12.110Z,99614.19
2023-03-19T17:21:46.919Z,99609.55
2023-03-19T17:24:25.963Z,99616.34
2023-03-19T17:27:02.562Z,99620.63
2023-03-19T17:29:36.280Z,99613.64
2023-03-19T17:32:14.402Z,99615.95
2023-03-19T17:34:50.205Z,99608.91
2023-03-19T17:37:29.015Z,99607.63
2023-03-19T17:40:16.542Z,99623.17
2023-03-19T17:42:52.277Z,99625.52
2023-03-19T17:45:34.593Z,99621.91
2023-03-19T17:48:13.908Z,99616.12
2023-03-19T17:50:51.457Z,99609.02
2023-03-19T17:53:31.695Z,99613.21
2023-03-19T17:56:08.027Z,99607.72
2023-03-19T17:58:43.274Z,99606.84
2023-03-19T18:01:19.246Z,99613.51
2023-03-19T18:03:54.092Z,99609.09
2023-03-19T18:06:32.566Z,99607.05
2023-03-19T18:09:08.582Z,99590.37
2023-03-19T18:12:05.669Z,99595.12
2023-03-19T18:14:41.657Z,99598.56
2023-03-19T18:17:18.354Z,99597.97
2023-03-19T18:19:54.521Z,99598.90
2023-03-19T18:22:29.167Z,99589.54
2023-03-19T18:25:02.468Z,99599.74
2023-03-19T18:27:43.754Z,99599.65
2023-03-19T18:30:20.660Z,99600.39
2023-03-19T18:32:57.264Z,99604.75
2023-03-19T18:35:34.208Z,99603.31
2023-03-19T18:38:19.134Z,99602.44
2023-03-19T18:40:58.305Z,99603.13
2023-03-19T18:43:35.547Z,99598.50
2023-03-19T18:46:12.390Z,99601.66
2023-03-19T18:48:51.117Z,99594.45
2023-03-19T18:51:24.561Z,99591.69
2023-03-19T18:53:58.119Z,99590.66
2023-03-19T18:56:33.699Z,99594.73
2023-03-19T18:59:10.038Z,99588.42
2023-03-19T19:01:55.151Z,99595.88
2023-03-19T19:04:32.121Z,99592.20
2023-03-19T19:07:05.785Z,99594.56
2023-03-19T19:09:40.582Z,99591.98
2023-03-19T19:12:19.037Z,99590.37
2023-03-19T19:14:53.914Z,99590.56
2023-03-19T19:17:33.342Z,99585.28
2023-03-19T19:20:10.400Z,99576.52
2023-03-19T19:22:48.823Z,99586.02
2023-03-19T19:25:27.507Z,99578.29
2023-03-19T19:28:22.300Z,99576.33
2023-03-19T19:34:03.209Z,99582.75
2023-03-19T19:36:48.460Z,99583.55
2023-03-19T19:42:25.289Z,99581.45
2023-03-19T19:45:01.642Z,99581.23
2023-03-19T19:47:36.121Z,99576.53
2023-03-19T19:50:17.649Z,99576.34
2023-03-19T19:52:50.954Z,99569.28
2023-03-19T19:55:29.250Z,99569.79
2023-03-19T19:58:02.942Z,99570.39
2023-03-19T20:00:42.221Z,99565.24
2023-03-19T20:03:20.012Z,99564.21
2023-03-19T20:05:54.625Z,99569.23
2023-03-19T20:08:28.981Z,99569.86
2023-03-19T20:11:17.394Z,99576.65
2023-03-19T20:13:53.883Z,99573.17
2023-03-19T20:16:29.344Z,99561.14
2023-03-19T20:19:08.064Z,99560.91
2023-03-19T20:21:44.692Z,99565.08
2023-03-19T20:24:18.538Z,99564.21
2023-03-19T20:26:51.781Z,99573.47
2023-03-19T20:29:24.811Z,99572.30
2023-03-19T20:31:58.348Z,99568.61
2023-03-19T20:34:39.005Z,99565.84
2023-03-19T20:37:07.424Z,99563.89
2023-03-19T20:39:40.431Z,99564.63
2023-03-19T20:42:16.059Z,99561.12
2023-03-19T20:44:52.218Z,99561.84
2023-03-19T20:47:26.533Z,99560.08
2023-03-19T20:50:02.908Z,99562.65
2023-03-19T20:52:36.158Z,99567.72
2023-03-19T20:55:13.264Z,99552.70
2023-03-19T20:57:48.487Z,99561.40
2023-03-19T21:00:28.607Z,99552.70
2023-03-19T21:03:03.197Z,99559.63
2023-03-19T21:05:41.097Z,99552.70
2023-03-19T21:08:23.515Z,99562.06
2023-03-19T21:10:58.237Z,99550.73
2023-03-19T21:13:33.521Z,99550.48
2023-03-19T21:16:07.933Z,99560.56
2023-03-19T21:18:42.233Z,99557.08
2023-03-19T21:21:16.033Z,99555.41
2023-03-19T21:23:53.614Z,99551.94
2023-03-19T21:26:27.465Z,99549.16
2023-03-19T21:29:05.807Z,99542.97
2023-03-19T21:31:38.874Z,99548.11
2023-03-19T21:50:02.556Z,99535.98
2023-03-19T21:52:56.350Z,99547.33
2023-03-19T21:55:18.446Z,99542.05
2023-03-19T21:57:53.088Z,99537.84
2023-03-19T22:00:26.922Z,99543.79
2023-03-19T22:02:59.978Z,99537.78
2023-03-19T22:05:36.595Z,99534.34
2023-03-19T22:08:09.968Z,99538.50
2023-03-19T22:10:44.756Z,99532.39
2023-03-19T22:13:22.535Z,99535.79
2023-03-19T22:15:55.745Z,99539.23
2023-03-19T22:18:30.097Z,99533.29
2023-03-19T22:21:03.183Z,99535.69
2023-03-19T22:23:36.078Z,99536.59
2023-03-19T22:26:19.499Z,99535.61
2023-03-19T22:28:52.865Z,99538.91
2023-03-19T22:31:26.568Z,99531.92
2023-03-19T22:34:03.185Z,99529.21
2023-03-19T22:36:36.143Z,99529.21
2023-03-19T22:39:09.354Z,99531.78
2023-03-19T22:41:46.117Z,99524.94
2023-03-19T22:44:22.598Z,99521.57
2023-03-19T22:46:57.868Z,99524.94
2023-03-19T22:49:32.103Z,99527.44
2023-03-19T22:52:05.977Z,99528.34
2023-03-19T22:54:38.958Z,99519.73
2023-03-19T22:57:15.839Z,99515.39
2023-03-19T22:59:51.315Z,99507.67
2023-03-19T23:02:24.318Z,99519.58
2023-03-19T23:04:58.670Z,99510.10
2023-03-19T23:07:31.661Z,99514.27
2023-03-19T23:10:10.457Z,99509.85
2023-03-19T23:12:43.552Z,99504.64
2023-03-19T23:15:16.933Z,99503.70
2023-03-19T23:17:50.696Z,99503.59
2023-03-19T23:20:26.143Z,99502.72
2023-03-19T23:22:59.418Z,99503.59
2023-03-19T23:25:32.511Z,99499.36
2023-03-19T23:28:06.145Z,99499.17
2023-03-19T23:30:41.269Z,99490.59
2023-03-19T23:33:14.926Z,99493.89
2023-03-19T23:35:48.935Z,99496.46
2023-03-19T23:38:21.844Z,99495.59
2023-03-19T23:40:54.970Z,99497.98
2023-03-19T23:43:29.927Z,99495.52
2023-03-19T23:46:03.526Z,99495.52
2023-03-19T23:48:42.451Z,99497.98
2023-03-19T23:51:17.145Z,99503.84
2023-03-19T23:53:51.363Z,99498.56
2023-03-19T23:56:26.694Z,99496.64
2023-03-19T23:59:00.373Z,99491.32
